createdAt,value
2018-09-14T00:00:16.285Z,1009.06
2018-09-14T00:01:16.487Z,1009.10
2018-09-14T00:02:16.748Z,1009.15
2018-09-14T00:03:16.877Z,1009.15
2018-09-14T00:04:17.171Z,1009.12
2018-09-14T00:05:17.275Z,1009.11
2018-09-14T00:06:17.378Z,1009.15
2018-09-14T00:07:17.618Z,1009.10
2018-09-14T00:08:17.769Z,1009.17
2018-09-14T00:09:17.925Z,1009.10
2018-09-14T00:10:18.359Z,1009.11
2018-09-14T00:11:19.183Z,1009.06
2018-09-14T00:12:19.495Z,1009.08
2018-09-14T00:13:19.720Z,1009.12
2018-09-14T00:14:20.023Z,1009.13
2018-09-14T00:15:20.645Z,1009.12
2018-09-14T00:16:20.779Z,1009.12
2018-09-14T00:17:20.772Z,1009.15
2018-09-14T00:18:20.662Z,1009.13
2018-09-14T00:19:20.695Z,1009.02
2018-09-14T00:20:21.163Z,1009.15
2018-09-14T00:21:21.501Z,1009.12
2018-09-14T00:22:21.822Z,1009.14
2018-09-14T00:23:22.117Z,1009.17
2018-09-14T00:24:22.206Z,1009.12
2018-09-14T00:25:22.230Z,1009.11
2018-09-14T00:26:22.229Z,1009.18
2018-09-14T00:27:22.572Z,1009.17
2018-09-14T00:28:22.910Z,1009.10
2018-09-14T00:29:23.280Z,1009.10
2018-09-14T00:30:23.771Z,1009.08
2018-09-14T00:31:24.114Z,1009.13
2018-09-14T00:32:24.315Z,1009.07
2018-09-14T00:33:24.581Z,1009.07
2018-09-14T00:34:24.784Z,1009.08
2018-09-14T00:35:24.994Z,1009.11
2018-09-14T00:36:25.381Z,1009.12
2018-09-14T00:37:25.513Z,1009.09
2018-09-14T00:38:25.863Z,1009.05
2018-09-14T00:39:26.105Z,1009.10
2018-09-14T00:40:26.498Z,1009.05
2018-09-14T00:41:26.606Z,1009.01
2018-09-14T00:42:26.922Z,1009.01
2018-09-14T00:43:27.109Z,1009.06
2018-09-14T00:44:27.357Z,1009.02
2018-09-14T00:45:27.522Z,1009.04
2018-09-14T00:46:27.775Z,1009.02
2018-09-14T00:47:28.031Z,1009.07
2018-09-14T00:48:28.151Z,1009.06
2018-09-14T00:49:28.457Z,1009.06
2018-09-14T00:50:28.681Z,1009.06
2018-09-14T00:51:28.893Z,1009.00
2018-09-14T00:52:29.222Z,1009.08
2018-09-14T00:53:29.433Z,1009.04
2018-09-14T00:54:29.735Z,1009.00
2018-09-14T00:55:29.934Z,1009.06
2018-09-14T00:56:30.030Z,1009.06
2018-09-14T00:57:30.190Z,1009.08
2018-09-14T00:58:30.408Z,1009.02
2018-09-14T00:59:30.682Z,1009.11
2018-09-14T01:00:30.945Z,1009.09
2018-09-14T01:01:31.105Z,1009.06
2018-09-14T01:02:31.331Z,1009.14
2018-09-14T01:03:31.527Z,1009.13
2018-09-14T01:04:31.683Z,1009.13
2018-09-14T01:05:31.954Z,1009.16
2018-09-14T01:06:32.191Z,1009.13
2018-09-14T01:07:32.383Z,1009.18
2018-09-14T01:08:32.585Z,1009.15
2018-09-14T01:09:32.900Z,1009.10
2018-09-14T01:11:33.292Z,1009.08
2018-09-14T01:12:33.929Z,1009.11
2018-09-14T01:13:34.129Z,1009.10
2018-09-14T01:14:34.873Z,1009.13
2018-09-14T01:15:34.594Z,1009.14
2018-09-14T01:16:35.007Z,1009.05
2018-09-14T01:17:35.397Z,1009.06
2018-09-14T01:18:38.784Z,1009.12
2018-09-14T01:19:36.216Z,1009.16
2018-09-14T01:20:36.533Z,1009.10
2018-09-14T01:21:36.644Z,1009.12
2018-09-14T01:22:36.326Z,1009.16
2018-09-14T01:23:36.915Z,1009.20
2018-09-14T01:24:37.168Z,1009.10
2018-09-14T01:25:37.240Z,1009.05
2018-09-14T01:26:37.145Z,1009.10
2018-09-14T01:27:37.467Z,1009.05
2018-09-14T01:28:37.907Z,1009.10
2018-09-14T01:29:38.320Z,1009.10
2018-09-14T01:30:38.849Z,1009.02
2018-09-14T01:31:38.907Z,1009.03
2018-09-14T01:32:38.864Z,1009.02
2018-09-14T01:33:39.140Z,1009.03
2018-09-14T01:34:39.308Z,1009.16
2018-09-14T01:35:39.508Z,1009.14
2018-09-14T01:36:39.705Z,1009.11
2018-09-14T01:37:39.837Z,1009.08
2018-09-14T01:38:40.062Z,1009.05
2018-09-14T01:39:40.432Z,1009.09
2018-09-14T01:40:40.723Z,1009.09
2018-09-14T01:41:40.907Z,1009.05
2018-09-14T01:42:41.163Z,1009.06
2018-09-14T01:43:41.321Z,1009.08
2018-09-14T01:44:41.433Z,1009.08
2018-09-14T01:45:41.631Z,1009.05
2018-09-14T01:46:41.845Z,1009.04
2018-09-14T01:47:42.055Z,1009.06
2018-09-14T01:48:42.304Z,1009.15
2018-09-14T01:49:42.478Z,1009.08
2018-09-14T01:50:42.767Z,1009.06
2018-09-14T01:51:42.896Z,1009.11
2018-09-14T01:52:43.155Z,1008.98
2018-09-14T01:53:43.400Z,1008.99
2018-09-14T01:54:43.582Z,1009.07
2018-09-14T01:55:43.787Z,1009.06
2018-09-14T01:56:43.950Z,1009.00
2018-09-14T01:57:44.165Z,1009.05
2018-09-14T01:58:44.389Z,1008.94
2018-09-14T01:59:44.586Z,1009.04
2018-09-14T02:00:44.803Z,1009.00
2018-09-14T02:01:45.125Z,1008.96
2018-09-14T02:02:45.475Z,1009.02
2018-09-14T02:03:45.732Z,1008.97
2018-09-14T02:04:45.958Z,1008.96
2018-09-14T02:05:46.282Z,1008.94
2018-09-14T02:06:46.483Z,1009.01
2018-09-14T02:07:46.673Z,1008.96
2018-09-14T02:08:46.900Z,1008.91
2018-09-14T02:09:47.123Z,1008.95
2018-09-14T02:10:47.362Z,1008.92
2018-09-14T02:11:47.541Z,1008.90
2018-09-14T02:12:47.750Z,1008.91
2018-09-14T02:13:48.551Z,1008.89
2018-09-14T02:14:49.021Z,1008.95
2018-09-14T02:15:49.384Z,1008.93
2018-09-14T02:16:50.002Z,1008.82
2018-09-14T02:17:49.807Z,1008.80
2018-09-14T02:18:50.427Z,1008.84
2018-09-14T02:19:50.546Z,1008.85
2018-09-14T02:20:50.442Z,1008.94
2018-09-14T02:21:50.752Z,1008.83
2018-09-14T02:22:51.167Z,1008.83
2018-09-14T02:23:51.482Z,1008.81
2018-09-14T02:24:51.809Z,1008.78
2018-09-14T02:25:51.992Z,1008.83
2018-09-14T02:26:52.078Z,1008.81
2018-09-14T02:27:52.072Z,1008.72
2018-09-14T02:28:52.453Z,1008.78
2018-09-14T02:29:52.788Z,1008.77
2018-09-14T02:30:53.119Z,1008.80
2018-09-14T02:31:53.564Z,1008.80
2018-09-14T02:32:53.971Z,1008.79
2018-09-14T02:33:54.468Z,1008.78
2018-09-14T02:34:54.584Z,1008.80
2018-09-14T02:35:54.764Z,1008.75
2018-09-14T02:36:54.982Z,1008.77
2018-09-14T02:37:55.175Z,1008.74
2018-09-14T02:38:55.274Z,1008.78
2018-09-14T02:39:55.509Z,1008.78
2018-09-14T02:40:55.726Z,1008.88
2018-09-14T02:41:56.101Z,1008.89
2018-09-14T02:42:56.236Z,1008.87
2018-09-14T02:43:56.487Z,1008.94
2018-09-14T02:44:56.666Z,1008.84
2018-09-14T02:45:56.938Z,1008.91
2018-09-14T02:46:57.058Z,1008.87
2018-09-14T02:47:57.331Z,1008.98
2018-09-14T02:48:57.507Z,1008.94
2018-09-14T02:49:57.642Z,1008.94
2018-09-14T02:50:57.876Z,1008.92
2018-09-14T02:51:58.113Z,1008.90
2018-09-14T02:52:58.299Z,1008.91
2018-09-14T02:53:58.468Z,1008.94
2018-09-14T02:54:58.568Z,1008.95
2018-09-14T02:55:58.892Z,1009.00
2018-09-14T02:56:59.161Z,1008.99
2018-09-14T02:57:59.301Z,1008.95
2018-09-14T02:58:59.757Z,1009.07
2018-09-14T03:00:00.064Z,1008.96
2018-09-14T03:01:00.141Z,1009.02
2018-09-14T03:02:00.353Z,1009.02
2018-09-14T03:03:00.598Z,1009.00
2018-09-14T03:04:00.750Z,1009.03
2018-09-14T03:05:00.879Z,1008.93
2018-09-14T03:06:01.108Z,1008.98
2018-09-14T03:07:01.303Z,1008.97
2018-09-14T03:08:01.893Z,1009.05
2018-09-14T03:09:01.544Z,1008.99
2018-09-14T03:10:01.702Z,1008.93
2018-09-14T03:11:02.107Z,1008.90
2018-09-14T03:12:02.631Z,1008.94
2018-09-14T03:13:02.248Z,1008.93
2018-09-14T03:14:02.617Z,1008.89
2018-09-14T03:15:02.778Z,1008.91
2018-09-14T03:16:03.719Z,1008.95
2018-09-14T03:17:04.115Z,1008.88
2018-09-14T03:18:04.562Z,1008.87
2018-09-14T03:19:04.976Z,1008.97
2018-09-14T03:20:05.571Z,1008.93
2018-09-14T03:21:05.479Z,1008.87
2018-09-14T03:22:05.893Z,1008.88
2018-09-14T03:23:06.411Z,1008.90
2018-09-14T03:24:06.530Z,1008.97
2018-09-14T03:25:06.631Z,1008.94
2018-09-14T03:26:06.740Z,1008.94
2018-09-14T03:27:06.847Z,1008.86
2018-09-14T03:28:06.960Z,1008.98
2018-09-14T03:29:06.716Z,1008.99
2018-09-14T03:30:07.077Z,1008.96
2018-09-14T03:31:07.263Z,1008.95
2018-09-14T03:32:07.245Z,1008.94
2018-09-14T03:33:07.608Z,1008.92
2018-09-14T03:34:07.957Z,1008.91
2018-09-14T03:35:08.319Z,1008.90
2018-09-14T03:36:08.553Z,1009.02
2018-09-14T03:37:08.894Z,1008.91
2018-09-14T03:38:09.449Z,1008.94
2018-09-14T03:39:10.010Z,1008.97
2018-09-14T03:40:09.652Z,1008.98
2018-09-14T03:41:09.659Z,1009.01
2018-09-14T03:42:09.331Z,1009.04
2018-09-14T03:43:09.761Z,1008.99
2018-09-14T03:44:10.192Z,1009.02
2018-09-14T03:45:10.327Z,1009.01
2018-09-14T03:46:10.708Z,1009.01
2018-09-14T03:47:10.890Z,1008.96
2018-09-14T03:48:11.109Z,1008.99
2018-09-14T03:49:11.333Z,1008.97
2018-09-14T03:50:11.720Z,1008.99
2018-09-14T03:51:11.968Z,1008.96
2018-09-14T03:52:12.071Z,1008.93
2018-09-14T03:53:12.184Z,1008.99
2018-09-14T03:54:12.381Z,1008.95
2018-09-14T03:55:12.875Z,1009.00
2018-09-14T03:56:13.108Z,1008.98
2018-09-14T03:57:13.439Z,1008.97
2018-09-14T03:58:13.630Z,1008.95
2018-09-14T03:59:13.860Z,1008.97
2018-09-14T04:00:13.937Z,1008.96
2018-09-14T04:01:14.154Z,1008.97
2018-09-14T04:02:14.253Z,1008.96
2018-09-14T04:03:14.547Z,1008.97
2018-09-14T04:04:14.800Z,1008.98
2018-09-14T04:05:15.286Z,1008.95
2018-09-14T04:06:15.393Z,1009.01
2018-09-14T04:07:15.536Z,1009.00
2018-09-14T04:08:15.644Z,1008.95
2018-09-14T04:09:15.902Z,1009.05
2018-09-14T04:10:16.401Z,1008.92
2018-09-14T04:11:16.512Z,1009.06
2018-09-14T04:12:16.836Z,1008.98
2018-09-14T04:13:17.049Z,1008.95
2018-09-14T04:14:17.217Z,1009.04
2018-09-14T04:15:17.418Z,1009.03
2018-09-14T04:16:17.632Z,1009.03
2018-09-14T04:17:18.129Z,1009.06
2018-09-14T04:19:18.973Z,1009.08
2018-09-14T04:20:19.076Z,1009.12
2018-09-14T04:21:19.389Z,1009.11
2018-09-14T04:22:19.504Z,1009.13
2018-09-14T04:23:20.168Z,1009.08
2018-09-14T04:24:19.720Z,1009.13
2018-09-14T04:25:20.231Z,1009.08
2018-09-14T04:26:20.338Z,1009.11
2018-09-14T04:27:20.346Z,1009.13
2018-09-14T04:28:20.352Z,1009.14
2018-09-14T04:29:20.472Z,1009.17
2018-09-14T04:30:20.367Z,1009.19
2018-09-14T04:31:20.681Z,1009.18
2018-09-14T04:32:21.052Z,1009.16
2018-09-14T04:33:21.309Z,1009.16
2018-09-14T04:34:21.633Z,1009.16
2018-09-14T04:35:21.928Z,1009.19
2018-09-14T04:36:22.032Z,1009.23
2018-09-14T04:37:22.224Z,1009.20
2018-09-14T04:38:22.261Z,1009.26
2018-09-14T04:39:22.235Z,1009.23
2018-09-14T04:40:22.224Z,1009.24
2018-09-14T04:41:22.562Z,1009.22
2018-09-14T04:42:22.897Z,1009.21
2018-09-14T04:43:23.311Z,1009.22
2018-09-14T04:44:23.832Z,1009.16
2018-09-14T04:45:23.738Z,1009.17
2018-09-14T04:46:23.950Z,1009.21
2018-09-14T04:47:24.244Z,1009.24
2018-09-14T04:48:24.411Z,1009.29
2018-09-14T04:49:24.705Z,1009.24
2018-09-14T04:50:24.791Z,1009.29
2018-09-14T04:51:25.015Z,1009.31
2018-09-14T04:52:25.172Z,1009.36
2018-09-14T04:53:25.542Z,1009.31
2018-09-14T04:54:25.671Z,1009.26
2018-09-14T04:55:25.983Z,1009.34
2018-09-14T04:56:26.197Z,1009.38
2018-09-14T04:57:26.522Z,1009.32
2018-09-14T04:58:27.740Z,1009.29
2018-09-14T04:59:27.087Z,1009.30
2018-09-14T05:00:27.269Z,1009.25
2018-09-14T05:01:27.381Z,1009.27
2018-09-14T05:02:27.499Z,1009.33
2018-09-14T05:03:27.632Z,1009.20
2018-09-14T05:04:27.822Z,1009.23
2018-09-14T05:05:27.919Z,1009.25
2018-09-14T05:06:28.125Z,1009.22
2018-09-14T05:07:28.262Z,1009.18
2018-09-14T05:08:28.424Z,1009.24
2018-09-14T05:09:28.543Z,1009.24
2018-09-14T05:10:28.793Z,1009.36
2018-09-14T05:11:28.956Z,1009.28
2018-09-14T05:12:29.169Z,1009.25
2018-09-14T05:13:29.383Z,1009.35
2018-09-14T05:14:29.768Z,1009.30
2018-09-14T05:15:29.951Z,1009.33
2018-09-14T05:16:30.072Z,1009.39
2018-09-14T05:17:30.215Z,1009.29
2018-09-14T05:18:30.543Z,1009.38
2018-09-14T05:19:30.760Z,1009.36
2018-09-14T05:20:31.097Z,1009.35
2018-09-14T05:21:31.275Z,1009.34
2018-09-14T05:22:31.468Z,1009.34
2018-09-14T05:23:31.782Z,1009.35
2018-09-14T05:24:32.005Z,1009.35
2018-09-14T05:25:33.836Z,1009.35
2018-09-14T05:26:32.576Z,1009.40
2018-09-14T05:27:32.924Z,1009.43
2018-09-14T05:28:32.807Z,1009.42
2018-09-14T05:29:33.246Z,1009.39
2018-09-14T05:30:34.147Z,1009.39
2018-09-14T05:31:34.561Z,1009.39
2018-09-14T05:32:34.879Z,1009.34
2018-09-14T05:33:35.500Z,1009.33
2018-09-14T05:34:35.617Z,1009.30
2018-09-14T05:35:35.617Z,1009.35
2018-09-14T05:36:36.108Z,1009.34
2018-09-14T05:37:36.442Z,1009.30
2018-09-14T05:38:36.652Z,1009.36
2018-09-14T05:39:36.883Z,1009.40
2018-09-14T05:40:37.060Z,1009.36
2018-09-14T05:41:37.194Z,1009.42
2018-09-14T05:42:37.289Z,1009.38
2018-09-14T05:43:37.301Z,1009.38
2018-09-14T05:44:37.262Z,1009.45
2018-09-14T05:45:37.728Z,1009.45
2018-09-14T05:46:38.083Z,1009.41
2018-09-14T05:47:38.663Z,1009.46
2018-09-14T05:48:38.548Z,1009.37
2018-09-14T05:49:39.088Z,1009.45
2018-09-14T05:50:39.090Z,1009.50
2018-09-14T05:51:38.943Z,1009.50
2018-09-14T05:52:39.366Z,1009.46
2018-09-14T05:53:39.656Z,1009.46
2018-09-14T05:54:39.985Z,1009.55
2018-09-14T05:55:40.223Z,1009.43
2018-09-14T05:56:40.456Z,1009.48
2018-09-14T05:57:40.628Z,1009.45
2018-09-14T05:58:40.863Z,1009.45
2018-09-14T05:59:41.100Z,1009.58
2018-09-14T06:00:41.295Z,1009.42
2018-09-14T06:01:41.648Z,1009.45
2018-09-14T06:02:41.816Z,1009.46
2018-09-14T06:03:41.998Z,1009.48
2018-09-14T06:04:42.224Z,1009.49
2018-09-14T06:05:42.455Z,1009.44
2018-09-14T06:06:42.834Z,1009.48
2018-09-14T06:07:43.020Z,1009.41
2018-09-14T06:08:43.319Z,1009.42
2018-09-14T06:09:43.532Z,1009.56
2018-09-14T06:10:43.683Z,1009.49
2018-09-14T06:11:43.895Z,1009.44
2018-09-14T06:12:44.067Z,1009.47
2018-09-14T06:13:44.286Z,1009.45
2018-09-14T06:14:44.560Z,1009.46
2018-09-14T06:15:44.671Z,1009.44
2018-09-14T06:16:44.780Z,1009.49
2018-09-14T06:17:45.070Z,1009.48
2018-09-14T06:18:45.272Z,1009.57
2018-09-14T06:19:45.453Z,1009.61
2018-09-14T06:20:45.715Z,1009.45
2018-09-14T06:21:45.875Z,1009.55
2018-09-14T06:22:46.158Z,1009.54
2018-09-14T06:23:46.202Z,1009.60
2018-09-14T06:24:46.449Z,1009.62
2018-09-14T06:25:46.626Z,1009.59
2018-09-14T06:26:46.919Z,1009.55
2018-09-14T06:27:47.019Z,1009.61
2018-09-14T06:28:47.161Z,1009.56
2018-09-14T06:29:47.405Z,1009.61
2018-09-14T06:30:47.578Z,1009.59
2018-09-14T06:31:47.779Z,1009.59
2018-09-14T06:32:48.374Z,1009.61
2018-09-14T06:33:48.585Z,1009.61
2018-09-14T06:34:48.900Z,1009.60
2018-09-14T06:35:49.231Z,1009.61
2018-09-14T06:36:49.642Z,1009.61
2018-09-14T06:37:49.786Z,1009.60
2018-09-14T06:38:50.265Z,1009.60
2018-09-14T06:39:50.650Z,1009.59
2018-09-14T06:40:50.954Z,1009.59
2018-09-14T06:41:51.133Z,1009.59
2018-09-14T06:42:51.617Z,1009.58
2018-09-14T06:43:52.022Z,1009.56
2018-09-14T06:44:52.279Z,1009.55
2018-09-14T06:45:52.326Z,1009.55
2018-09-14T06:46:52.205Z,1009.54
2018-09-14T06:47:52.652Z,1009.51
2018-09-14T06:48:53.074Z,1009.49
2018-09-14T06:49:53.482Z,1009.46
2018-09-14T06:50:53.931Z,1009.46
2018-09-14T06:51:54.392Z,1009.46
2018-09-14T06:52:54.792Z,1009.48
2018-09-14T06:53:55.127Z,1009.50
2018-09-14T06:54:55.311Z,1009.53
2018-09-14T06:55:55.428Z,1009.53
2018-09-14T06:56:55.544Z,1009.51
2018-09-14T06:57:55.857Z,1009.52
2018-09-14T06:58:56.054Z,1009.52
2018-09-14T06:59:56.302Z,1009.52
2018-09-14T07:00:56.663Z,1009.54
2018-09-14T07:01:56.791Z,1009.55
2018-09-14T07:02:57.003Z,1009.57
2018-09-14T07:03:57.273Z,1009.57
2018-09-14T07:04:57.417Z,1009.58
2018-09-14T07:05:57.666Z,1009.57
2018-09-14T07:06:57.901Z,1009.58
2018-09-14T07:07:58.061Z,1009.59
2018-09-14T07:08:58.264Z,1009.59
2018-09-14T07:09:58.392Z,1009.59
2018-09-14T07:10:58.594Z,1009.60
2018-09-14T07:11:58.889Z,1009.60
2018-09-14T07:12:59.140Z,1009.61
2018-09-14T07:13:59.594Z,1009.62
2018-09-14T07:14:59.755Z,1009.62
2018-09-14T07:16:00.184Z,1009.62
2018-09-14T07:17:00.380Z,1009.63
2018-09-14T07:18:00.596Z,1009.63
2018-09-14T07:19:00.966Z,1009.63
2018-09-14T07:20:01.167Z,1009.64
2018-09-14T07:21:01.319Z,1009.65
2018-09-14T07:22:01.938Z,1009.68
2018-09-14T07:23:01.645Z,1009.66
2018-09-14T07:24:01.852Z,1009.67
2018-09-14T07:25:02.234Z,1009.67
2018-09-14T07:26:02.615Z,1009.68
2018-09-14T07:27:03.278Z,1009.67
2018-09-14T07:28:03.588Z,1009.67
2018-09-14T07:29:04.056Z,1009.68
2018-09-14T07:30:04.441Z,1009.67
2018-09-14T07:31:04.744Z,1009.68
2018-09-14T07:32:04.885Z,1009.69
2018-09-14T07:33:04.887Z,1009.68
2018-09-14T07:34:05.159Z,1009.69
2018-09-14T07:35:05.675Z,1009.70
2018-09-14T07:36:05.389Z,1009.72
2018-09-14T07:37:05.688Z,1009.75
2018-09-14T07:38:06.310Z,1009.78
2018-09-14T07:39:06.320Z,1009.83
2018-09-14T07:40:06.326Z,1009.87
2018-09-14T07:41:06.134Z,1009.92
2018-09-14T07:42:06.609Z,1009.94
2018-09-14T07:43:06.362Z,1009.95
2018-09-14T07:44:07.157Z,1009.96
2018-09-14T07:45:07.141Z,1009.99
2018-09-14T07:46:07.521Z,1010.00
2018-09-14T07:47:07.906Z,1010.03
2018-09-14T07:48:08.347Z,1010.05
2018-09-14T07:49:08.832Z,1010.05
2018-09-14T07:50:08.985Z,1010.09
2018-09-14T07:51:09.063Z,1010.11
2018-09-14T07:52:09.041Z,1010.12
2018-09-14T07:53:09.159Z,1010.12
2018-09-14T07:54:09.591Z,1010.14
2018-09-14T07:55:09.787Z,1010.15
2018-09-14T07:56:10.046Z,1010.17
2018-09-14T07:57:10.487Z,1010.17
2018-09-14T07:58:10.836Z,1010.18
2018-09-14T07:59:11.041Z,1010.19
2018-09-14T08:00:11.244Z,1010.20
2018-09-14T08:01:11.482Z,1010.18
2018-09-14T08:02:11.668Z,1010.16
2018-09-14T08:03:11.982Z,1010.12
2018-09-14T08:04:12.158Z,1010.11
2018-09-14T08:05:12.559Z,1010.10
2018-09-14T08:06:12.801Z,1010.12
2018-09-14T08:07:13.052Z,1010.14
2018-09-14T08:08:13.237Z,1010.13
2018-09-14T08:09:13.735Z,1010.14
2018-09-14T08:10:13.995Z,1010.15
2018-09-14T08:11:14.104Z,1010.05
2018-09-14T08:12:14.246Z,1010.08
2018-09-14T08:13:14.517Z,1010.08
2018-09-14T08:14:14.861Z,1010.09
2018-09-14T08:15:15.462Z,1010.09
2018-09-14T08:16:15.103Z,1010.09
2018-09-14T08:17:15.307Z,1010.10
2018-09-14T08:18:15.618Z,1010.10
2018-09-14T08:19:15.831Z,1010.11
2018-09-14T08:20:16.517Z,1010.12
2018-09-14T08:21:16.449Z,1010.13
2018-09-14T08:22:16.466Z,1010.13
2018-09-14T08:23:16.678Z,1010.14
2018-09-14T08:24:16.804Z,1010.14
2018-09-14T08:25:17.251Z,1010.16
2018-09-14T08:26:17.540Z,1010.23
2018-09-14T08:27:17.724Z,1010.22
2018-09-14T08:28:18.106Z,1010.20
2018-09-14T08:29:19.085Z,1010.19
2018-09-14T08:30:19.450Z,1010.16
2018-09-14T08:31:19.868Z,1010.14
2018-09-14T08:32:20.595Z,1010.17
2018-09-14T08:33:20.086Z,1010.18
2018-09-14T08:34:20.499Z,1010.18
2018-09-14T08:35:21.019Z,1010.18
2018-09-14T08:36:21.135Z,1010.18
2018-09-14T08:37:21.154Z,1010.18
2018-09-14T08:38:21.025Z,1010.17
2018-09-14T08:39:21.212Z,1010.17
2018-09-14T08:40:21.362Z,1010.18
2018-09-14T08:41:21.776Z,1010.20
2018-09-14T08:42:22.090Z,1010.22
2018-09-14T08:43:22.097Z,1010.24
2018-09-14T08:44:22.290Z,1010.21
2018-09-14T08:45:22.201Z,1010.21
2018-09-14T08:46:22.619Z,1010.22
2018-09-14T08:47:23.053Z,1010.19
2018-09-14T08:48:23.460Z,1010.19
2018-09-14T08:49:23.848Z,1010.21
2018-09-14T08:50:24.045Z,1010.22
2018-09-14T08:51:24.255Z,1010.25
2018-09-14T08:52:24.497Z,1010.24
2018-09-14T08:53:24.662Z,1010.24
2018-09-14T08:54:25.028Z,1010.25
2018-09-14T08:55:25.244Z,1010.23
2018-09-14T08:56:25.452Z,1010.24
2018-09-14T08:57:25.596Z,1010.23
2018-09-14T08:58:25.865Z,1010.23
2018-09-14T09:00:26.142Z,1010.25
2018-09-14T09:01:26.339Z,1010.26
2018-09-14T09:02:26.583Z,1010.22
2018-09-14T09:03:27.013Z,1010.21
2018-09-14T09:04:27.216Z,1010.22
2018-09-14T09:05:27.487Z,1010.24
2018-09-14T09:06:27.778Z,1010.23
2018-09-14T09:07:27.926Z,1010.24
2018-09-14T09:08:28.116Z,1010.21
2018-09-14T09:09:28.467Z,1010.20
2018-09-14T09:10:28.810Z,1010.14
2018-09-14T09:11:28.998Z,1010.11
2018-09-14T09:12:29.076Z,1010.27
2018-09-14T09:13:29.302Z,1010.09
2018-09-14T09:14:29.494Z,1010.18
2018-09-14T09:15:29.805Z,1010.17
2018-09-14T09:16:30.229Z,1010.21
2018-09-14T09:17:30.531Z,1010.12
2018-09-14T09:18:30.756Z,1010.07
2018-09-14T09:19:31.057Z,1010.10
2018-09-14T09:20:31.172Z,1010.09
2018-09-14T09:21:31.379Z,1010.03
2018-09-14T09:22:31.636Z,1010.00
2018-09-14T09:23:31.890Z,1010.06
2018-09-14T09:24:32.037Z,1010.01
2018-09-14T09:25:32.231Z,1010.02
2018-09-14T09:26:32.615Z,1010.03
2018-09-14T09:27:33.046Z,1010.05
2018-09-14T09:28:33.653Z,1010.04
2018-09-14T09:29:34.017Z,1010.09
2018-09-14T09:30:34.281Z,1010.07
2018-09-14T09:31:34.599Z,1010.09
2018-09-14T09:32:35.236Z,1010.09
2018-09-14T09:33:35.226Z,1010.15
2018-09-14T09:34:35.746Z,1010.12
2018-09-14T09:35:35.757Z,1010.10
2018-09-14T09:36:35.860Z,1010.07
2018-09-14T09:37:35.875Z,1010.05
2018-09-14T09:38:35.976Z,1010.07
2018-09-14T09:39:35.989Z,1010.05
2018-09-14T09:40:36.091Z,1010.06
2018-09-14T09:41:36.201Z,1010.02
2018-09-14T09:42:36.218Z,1010.10
2018-09-14T09:43:36.268Z,1010.17
2018-09-14T09:44:36.736Z,1010.09
2018-09-14T09:45:36.429Z,1010.09
2018-09-14T09:46:36.946Z,1010.19
2018-09-14T09:47:36.581Z,1010.10
2018-09-14T09:48:36.962Z,1010.07
2018-09-14T09:49:37.209Z,1010.06
2018-09-14T09:50:37.328Z,1009.99
2018-09-14T09:51:37.242Z,1010.06
2018-09-14T09:52:37.685Z,1010.10
2018-09-14T09:53:38.707Z,1010.01
2018-09-14T09:54:38.080Z,1010.02
2018-09-14T09:55:38.750Z,1010.03
2018-09-14T09:56:38.678Z,1010.10
2018-09-14T09:57:39.285Z,1010.02
2018-09-14T09:58:39.243Z,1010.14
2018-09-14T09:59:39.412Z,1010.15
2018-09-14T10:00:39.676Z,1010.09
2018-09-14T10:01:39.831Z,1010.09
2018-09-14T10:02:40.098Z,1010.11
2018-09-14T10:03:40.288Z,1010.17
2018-09-14T10:04:40.469Z,1010.12
2018-09-14T10:05:40.702Z,1010.12
2018-09-14T10:06:40.929Z,1010.09
2018-09-14T10:07:41.310Z,1010.12
2018-09-14T10:08:41.553Z,1010.17
2018-09-14T10:09:41.727Z,1010.06
2018-09-14T10:10:41.975Z,1010.07
2018-09-14T10:11:42.165Z,1010.11
2018-09-14T10:12:42.534Z,1010.12
2018-09-14T10:13:42.790Z,1010.04
2018-09-14T10:14:43.018Z,1010.09
2018-09-14T10:15:43.210Z,1010.07
2018-09-14T10:16:43.323Z,1010.07
2018-09-14T10:17:43.427Z,1010.00
2018-09-14T10:18:43.655Z,1010.03
2018-09-14T10:19:43.850Z,1010.00
2018-09-14T10:20:44.069Z,1010.07
2018-09-14T10:21:44.501Z,1010.07
2018-09-14T10:22:44.604Z,1010.02
2018-09-14T10:23:44.858Z,1010.05
2018-09-14T10:24:45.011Z,1010.04
2018-09-14T10:25:45.279Z,1010.02
2018-09-14T10:26:45.713Z,1010.06
2018-09-14T10:27:45.874Z,1009.99
2018-09-14T10:28:46.079Z,1009.98
2018-09-14T10:29:46.268Z,1010.02
2018-09-14T10:30:46.397Z,1010.01
2018-09-14T10:31:46.602Z,1009.96
2018-09-14T10:32:46.815Z,1009.98
2018-09-14T10:33:47.186Z,1010.00
2018-09-14T10:34:47.352Z,1009.96
2018-09-14T10:35:47.544Z,1009.94
2018-09-14T10:36:47.722Z,1009.89
2018-09-14T10:37:47.885Z,1009.87
2018-09-14T10:38:48.670Z,1009.92
2018-09-14T10:39:48.979Z,1009.94
2018-09-14T10:40:49.530Z,1009.90
2018-09-14T10:41:49.297Z,1009.93
2018-09-14T10:42:49.829Z,1009.88
2018-09-14T10:43:49.720Z,1009.87
2018-09-14T10:44:50.126Z,1009.88
2018-09-14T10:45:50.643Z,1009.83
2018-09-14T10:46:50.648Z,1009.89
2018-09-14T10:47:50.759Z,1009.81
2018-09-14T10:48:50.983Z,1009.79
2018-09-14T10:49:50.988Z,1009.76
2018-09-14T10:50:50.988Z,1009.73
2018-09-14T10:51:50.950Z,1009.66
2018-09-14T10:52:51.236Z,1009.71
2018-09-14T10:53:51.730Z,1009.76
2018-09-14T10:54:51.968Z,1009.72
2018-09-14T10:55:52.114Z,1009.70
2018-09-14T10:56:52.122Z,1009.74
2018-09-14T10:57:52.573Z,1009.67
2018-09-14T10:58:52.906Z,1009.74
2018-09-14T10:59:53.513Z,1009.63
2018-09-14T11:00:53.409Z,1009.61
2018-09-14T11:01:53.759Z,1009.65
2018-09-14T11:02:54.079Z,1009.66
2018-09-14T11:03:54.442Z,1009.68
2018-09-14T11:04:54.590Z,1009.56
2018-09-14T11:05:54.959Z,1009.54
2018-09-14T11:06:55.132Z,1009.60
2018-09-14T11:07:55.250Z,1009.62
2018-09-14T11:08:55.444Z,1009.53
2018-09-14T11:09:55.611Z,1009.51
2018-09-14T11:10:55.886Z,1009.55
2018-09-14T11:11:56.062Z,1009.54
2018-09-14T11:12:56.322Z,1009.46
2018-09-14T11:13:56.435Z,1009.45
2018-09-14T11:14:56.594Z,1009.43
2018-09-14T11:15:56.824Z,1009.40
2018-09-14T11:16:57.138Z,1009.39
2018-09-14T11:17:57.350Z,1009.43
2018-09-14T11:18:57.694Z,1009.46
2018-09-14T11:19:57.964Z,1009.42
2018-09-14T11:20:58.182Z,1009.45
2018-09-14T11:21:58.422Z,1009.47
2018-09-14T11:22:58.609Z,1009.46
2018-09-14T11:23:58.828Z,1009.43
2018-09-14T11:24:59.262Z,1009.37
2018-09-14T11:25:59.336Z,1009.39
2018-09-14T11:26:59.588Z,1009.34
2018-09-14T11:27:59.770Z,1009.24
2018-09-14T11:29:00.154Z,1009.33
2018-09-14T11:30:00.416Z,1009.34
2018-09-14T11:31:00.580Z,1009.33
2018-09-14T11:32:00.670Z,1009.34
2018-09-14T11:33:00.890Z,1009.25
2018-09-14T11:34:01.117Z,1009.29
2018-09-14T11:35:01.316Z,1009.21
2018-09-14T11:36:01.673Z,1009.20
2018-09-14T11:37:02.114Z,1009.23
2018-09-14T11:38:02.583Z,1009.17
2018-09-14T11:39:03.366Z,1009.22
2018-09-14T11:40:03.878Z,1009.17
2018-09-14T11:41:03.884Z,1009.20
2018-09-14T11:42:03.889Z,1009.16
2018-09-14T11:43:04.004Z,1009.17
2018-09-14T11:44:04.017Z,1009.13
2018-09-14T11:45:03.856Z,1009.17
2018-09-14T11:46:04.484Z,1009.16
2018-09-14T11:47:04.231Z,1009.13
2018-09-14T11:48:04.547Z,1009.11
2018-09-14T11:50:05.078Z,1009.15
2018-09-14T11:51:05.392Z,1009.11
2018-09-14T11:52:05.879Z,1009.08
2018-09-14T11:53:06.422Z,1009.08
2018-09-14T11:54:06.560Z,1008.98
2018-09-14T11:55:06.335Z,1009.08
2018-09-14T11:56:06.750Z,1009.02
2018-09-14T11:57:07.061Z,1009.02
2018-09-14T11:58:07.264Z,1008.98
2018-09-14T11:59:07.238Z,1009.04
2018-09-14T12:00:07.638Z,1009.01
2018-09-14T12:01:07.789Z,1008.98
2018-09-14T12:02:08.128Z,1008.97
2018-09-14T12:03:08.249Z,1009.01
2018-09-14T12:04:08.460Z,1008.99
2018-09-14T12:05:08.843Z,1009.00
2018-09-14T12:06:09.476Z,1009.06
2018-09-14T12:07:09.550Z,1009.04
2018-09-14T12:08:09.615Z,1008.99
2018-09-14T12:09:09.685Z,1009.06
2018-09-14T12:10:09.664Z,1009.07
2018-09-14T12:11:09.844Z,1008.97
2018-09-14T12:12:10.130Z,1009.02